Time;durP1;ratioP1;P1;durP2;ratioP2;P2;SDS_P1;SDS_P2;PMS_P1;PMS_P2;Temp;Humidity;BMP_temperature;BMP_pressure;BME280_temperature;BME280_humidity;BME280_pressure;Samples;Min_cycle;Max_cycle;Signal;HPM_P1;HPM_P2
2022/11/23 00:00:15;;;;;;;7.68;4.00;;;4.90;99.90;;;;;;7595955;19;20014;-81
2022/11/23 00:02:52;;;;;;;8.07;4.33;;;4.90;99.90;;;;;;7595907;19;20026;-80
2022/11/23 00:05:26;;;;;;;9.95;5.40;;;4.90;99.90;;;;;;7619398;19;20062;-80
2022/11/23 00:07:58;;;;;;;15.35;5.63;;;4.90;99.90;;;;;;7622301;19;20558;-82
2022/11/23 00:10:30;;;;;;;10.52;5.95;;;4.90;99.90;;;;;;7618475;19;20601;-79
2022/11/23 00:13:02;;;;;;;7.35;4.85;;;4.80;99.90;;;;;;7618649;19;20025;-80
2022/11/23 00:15:34;;;;;;;8.63;4.85;;;4.80;99.90;;;;;;7605830;19;20780;-82
2022/11/23 00:18:07;;;;;;;7.93;5.10;;;4.90;99.90;;;;;;7613594;19;20109;-80
2022/11/23 00:20:39;;;;;;;11.93;5.65;;;4.90;99.90;;;;;;7620435;19;20014;-79
2022/11/23 00:23:11;;;;;;;14.68;5.85;;;5.00;99.90;;;;;;7625292;19;20019;-83
2022/11/23 00:25:45;;;;;;;9.77;6.75;;;4.90;99.90;;;;;;7612957;19;20022;-83
2022/11/23 00:28:18;;;;;;;11.57;7.03;;;5.00;99.90;;;;;;7627561;19;20033;-82
2022/11/23 00:30:50;;;;;;;11.38;7.03;;;5.00;99.90;;;;;;7631417;19;20026;-83
2022/11/23 00:33:22;;;;;;;11.63;7.03;;;5.00;99.90;;;;;;7654536;19;20023;-82
2022/11/23 00:36:02;;;;;;;12.93;6.65;;;5.00;99.90;;;;;;7612621;19;20371;-81
2022/11/23 00:38:35;;;;;;;11.55;6.03;;;4.90;99.90;;;;;;7626383;19;20043;-80
2022/11/23 00:41:09;;;;;;;14.25;6.95;;;4.90;99.90;;;;;;7628871;19;20014;-78
2022/11/23 00:43:42;;;;;;;16.00;6.97;;;4.90;99.90;;;;;;7618064;19;20521;-83
2022/11/23 00:46:16;;;;;;;18.77;7.32;;;4.90;99.90;;;;;;7617336;19;20454;-81
2022/11/23 00:48:50;;;;;;;12.45;6.47;;;4.90;99.90;;;;;;7627866;19;20565;-81
2022/11/23 00:51:30;;;;;;;17.25;6.25;;;4.90;99.90;;;;;;7621382;19;20026;-81
2022/11/23 00:54:04;;;;;;;16.33;6.63;;;4.90;99.90;;;;;;7608120;19;20025;-81
2022/11/23 00:56:36;;;;;;;10.20;5.60;;;4.90;99.90;;;;;;7596598;19;20025;-81
2022/11/23 00:59:09;;;;;;;9.55;5.65;;;5.00;99.90;;;;;;7613886;19;20011;-79
2022/11/23 01:01:42;;;;;;;11.45;5.82;;;5.00;99.90;;;;;;7597347;19;20518;-81
2022/11/23 01:04:14;;;;;;;12.00;6.10;;;5.00;99.90;;;;;;7628341;19;20018;-82
2022/11/23 01:06:46;;;;;;;11.50;6.85;;;5.10;99.90;;;;;;7627318;19;20021;-82
2022/11/23 01:09:25;;;;;;;11.35;6.85;;;5.00;99.90;;;;;;7625622;19;20099;-80
2022/11/23 01:11:57;;;;;;;11.68;6.47;;;5.10;99.90;;;;;;7623901;19;20114;-82
2022/11/23 01:14:29;;;;;;;15.20;6.35;;;5.10;99.90;;;;;;7624188;19;20025;-81
2022/11/23 01:17:01;;;;;;;17.13;6.93;;;5.00;99.90;;;;;;7626228;19;20051;-83
2022/11/23 01:19:33;;;;;;;12.70;6.15;;;5.10;99.90;;;;;;7635572;19;20030;-82
2022/11/23 01:22:05;;;;;;;9.77;6.30;;;5.00;99.90;;;;;;7636967;19;20038;-84
2022/11/23 01:24:37;;;;;;;9.70;5.85;;;5.00;99.90;;;;;;7627986;19;20007;-82
2022/11/23 01:27:13;;;;;;;11.50;6.28;;;5.00;99.90;;;;;;7627971;19;20019;-81
2022/11/23 01:29:45;;;;;;;16.23;7.05;;;5.00;99.90;;;;;;7627289;19;20022;-81
2022/11/23 01:32:17;;;;;;;13.48;6.47;;;5.00;99.90;;;;;;7613808;19;20422;-80
2022/11/23 01:34:50;;;;;;;12.60;6.90;;;5.00;99.90;;;;;;7592454;19;20019;-81
2022/11/23 01:37:22;;;;;;;10.38;5.50;;;4.90;99.90;;;;;;7617230;19;20010;-80
2022/11/23 01:39:56;;;;;;;14.60;6.60;;;4.90;99.90;;;;;;7614382;19;20021;-82
2022/11/23 01:43:12;;;;;;;12.15;6.30;;;5.00;99.90;;;;;;7594414;19;20022;-80
2022/11/23 01:45:56;;;;;;;10.98;6.85;;;5.00;99.90;;;;;;7614621;19;20019;-80
2022/11/23 01:48:45;;;;;;;16.95;7.30;;;5.00;99.90;;;;;;7623721;19;20818;-80
2022/11/23 01:51:21;;;;;;;17.40;7.53;;;4.90;99.90;;;;;;7627445;19;20034;-82
2022/11/23 01:53:57;;;;;;;12.80;6.97;;;4.90;99.90;;;;;;7617471;19;20555;-81
2022/11/23 01:56:34;;;;;;;15.63;7.22;;;4.90;99.90;;;;;;7608228;19;20026;-80
2022/11/23 01:59:11;;;;;;;11.27;6.43;;;4.80;99.90;;;;;;7626239;19;20026;-80
2022/11/23 02:01:43;;;;;;;14.93;6.80;;;4.80;99.90;;;;;;7619954;19;20568;-81
2022/11/23 02:04:22;;;;;;;13.50;6.65;;;4.80;99.90;;;;;;7633480;19;20022;-81
2022/11/23 02:06:54;;;;;;;15.80;7.03;;;4.80;99.90;;;;;;7631020;19;20030;-80
2022/11/23 02:09:31;;;;;;;14.73;7.15;;;4.80;99.90;;;;;;7623101;19;20010;-82
2022/11/23 02:12:09;;;;;;;13.38;7.10;;;4.80;99.90;;;;;;7630617;19;20025;-81
2022/11/23 02:14:42;;;;;;;17.58;8.70;;;4.80;99.90;;;;;;7620051;19;20010;-79
2022/11/23 02:17:15;;;;;;;17.33;6.65;;;4.80;99.90;;;;;;7632804;19;20014;-82
2022/11/23 02:20:07;;;;;;;12.18;6.53;;;4.80;99.90;;;;;;7630136;19;20655;-80
2022/11/23 02:23:00;;;;;;;14.43;6.70;;;4.90;99.90;;;;;;7636526;19;20021;-83
2022/11/23 02:25:42;;;;;;;23.73;9.23;;;4.90;99.90;;;;;;7648234;19;20050;-86
2022/11/23 02:28:25;;;;;;;17.33;7.70;;;4.90;99.90;;;;;;7650566;19;20025;-80
2022/11/23 02:30:57;;;;;;;14.30;7.53;;;4.80;99.90;;;;;;7641205;19;20017;-84
2022/11/23 02:33:29;;;;;;;19.48;8.45;;;4.80;99.90;;;;;;7640195;19;20019;-84
2022/11/23 02:36:22;;;;;;;11.32;6.43;;;4.70;99.90;;;;;;7620120;19;20022;-82
2022/11/23 02:38:58;;;;;;;17.05;8.55;;;4.80;99.90;;;;;;7627684;19;20364;-81
2022/11/23 02:41:51;;;;;;;15.10;7.88;;;4.80;99.90;;;;;;7632535;19;20015;-82
2022/11/23 02:44:42;;;;;;;12.80;7.32;;;4.80;99.90;;;;;;7624218;19;20017;-83
2022/11/23 02:47:16;;;;;;;13.63;7.07;;;4.70;99.90;;;;;;7625860;19;20042;-83
2022/11/23 02:49:48;;;;;;;11.93;6.93;;;4.70;99.90;;;;;;7635359;19;20023;-82
2022/11/23 02:52:21;;;;;;;;;;;4.70;99.90;;;;;;7621684;19;20011;-82
2022/11/23 02:54:56;;;;;;;15.82;6.68;;;4.70;99.90;;;;;;7611611;19;19974;-81
2022/11/23 02:57:28;;;;;;;12.18;6.22;;;4.70;99.90;;;;;;7625301;19;20022;-82
2022/11/23 03:00:00;;;;;;;11.55;6.22;;;4.70;99.90;;;;;;7632357;19;20050;-79
2022/11/23 03:02:33;;;;;;;12.48;5.90;;;4.70;99.90;;;;;;7628040;19;20026;-82
2022/11/23 03:05:06;;;;;;;14.68;5.78;;;4.70;99.90;;;;;;7628825;19;20018;-81
2022/11/23 03:07:38;;;;;;;12.23;5.73;;;4.70;99.90;;;;;;7614044;19;20018;-81
2022/11/23 03:10:11;;;;;;;12.68;4.40;;;4.70;99.90;;;;;;7626341;19;20311;-80
2022/11/23 03:12:43;;;;;;;9.60;4.32;;;4.70;99.90;;;;;;7635935;19;20018;-83
2022/11/23 03:15:17;;;;;;;8.60;4.18;;;4.70;99.90;;;;;;7630244;19;20466;-82
2022/11/23 03:17:51;;;;;;;9.80;5.07;;;4.70;99.90;;;;;;7629483;19;20010;-82
2022/11/23 03:20:25;;;;;;;13.30;5.63;;;4.70;99.90;;;;;;7633968;19;20403;-83
2022/11/23 03:22:58;;;;;;;12.07;6.03;;;4.70;99.90;;;;;;7618102;19;20010;-82
2022/11/23 03:25:30;;;;;;;14.15;5.57;;;4.70;99.90;;;;;;7621345;19;20018;-81
2022/11/23 03:28:03;;;;;;;8.27;5.50;;;4.60;99.90;;;;;;7628128;19;20110;-82
2022/11/23 03:30:36;;;;;;;;;;;4.60;99.90;;;;;;7626177;19;21705;-82
2022/11/23 03:33:10;;;;;;;12.82;4.63;;;4.60;99.90;;;;;;7632455;19;19922;-83
2022/11/23 03:35:42;;;;;;;15.38;4.88;;;4.50;99.90;;;;;;7620302;19;20086;-81
2022/11/23 03:38:24;;;;;;;8.32;4.00;;;4.60;99.90;;;;;;7618205;19;20056;-80
2022/11/23 03:40:57;;;;;;;8.55;4.60;;;4.60;99.90;;;;;;7626391;19;20014;-81
2022/11/23 03:43:36;;;;;;;12.23;4.35;;;4.50;99.90;;;;;;7614010;19;20094;-80
2022/11/23 03:46:08;;;;;;;13.38;4.50;;;4.40;99.90;;;;;;7618216;19;20369;-81
2022/11/23 03:48:41;;;;;;;18.55;5.10;;;4.30;99.90;;;;;;7618014;19;20042;-81
2022/11/23 03:51:13;;;;;;;9.30;3.75;;;4.30;99.90;;;;;;7624242;19;20056;-79
2022/11/23 03:53:45;;;;;;;15.77;4.10;;;4.30;99.90;;;;;;7619657;19;20312;-82
2022/11/23 03:56:17;;;;;;;7.97;3.05;;;4.30;99.90;;;;;;7622678;19;20611;-81
2022/11/23 03:58:50;;;;;;;6.05;3.30;;;4.30;99.90;;;;;;7618894;19;20029;-80
2022/11/23 04:01:22;;;;;;;7.43;3.22;;;4.20;99.90;;;;;;7624884;19;20056;-81
2022/11/23 04:04:01;;;;;;;6.07;3.25;;;4.30;99.90;;;;;;7628727;19;20046;-79
2022/11/23 04:06:42;;;;;;;10.90;3.33;;;4.30;99.90;;;;;;7622033;19;20022;-79
2022/11/23 04:09:21;;;;;;;9.00;3.20;;;4.30;99.90;;;;;;7630174;19;20026;-81
2022/11/23 04:12:09;;;;;;;7.25;2.83;;;4.30;99.90;;;;;;7632696;19;20047;-81
2022/11/23 04:14:42;;;;;;;6.82;2.72;;;4.30;99.90;;;;;;7627124;19;20019;-82
2022/11/23 04:17:14;;;;;;;8.80;3.30;;;4.30;99.90;;;;;;7636725;19;20039;-81
2022/11/23 04:19:47;;;;;;;4.88;2.95;;;4.30;99.90;;;;;;7652663;19;20014;-81
2022/11/23 04:22:20;;;;;;;5.68;2.78;;;4.30;99.90;;;;;;7633751;19;20616;-80
2022/11/23 04:24:52;;;;;;;12.80;3.00;;;4.20;99.90;;;;;;7630498;19;20014;-83
2022/11/23 04:27:24;;;;;;;8.55;3.38;;;4.20;99.90;;;;;;7631822;19;20235;-80
2022/11/23 04:29:56;;;;;;;9.80;3.67;;;4.20;99.90;;;;;;7613592;19;20011;-81
2022/11/23 04:32:30;;;;;;;;;;;4.30;99.90;;;;;;7621913;19;20088;-78
2022/11/23 04:35:03;;;;;;;8.30;2.55;;;4.40;99.90;;;;;;7608905;19;19982;-81
2022/11/23 04:37:36;;;;;;;;;;;4.30;99.90;;;;;;7621173;19;20933;-81
2022/11/23 04:40:09;;;;;;;4.95;2.60;;;4.20;99.90;;;;;;7628410;19;19918;-80
2022/11/23 04:42:45;;;;;;;6.25;3.00;;;4.20;99.90;;;;;;7622155;19;20018;-79
2022/11/23 04:45:18;;;;;;;8.05;3.72;;;4.10;99.90;;;;;;7628439;19;20018;-81
2022/11/23 04:47:50;;;;;;;4.55;2.88;;;4.00;99.90;;;;;;7627783;19;20020;-81
2022/11/23 04:50:22;;;;;;;9.02;3.55;;;4.10;99.90;;;;;;7631055;19;20021;-82
2022/11/23 04:52:58;;;;;;;12.50;4.72;;;4.10;99.90;;;;;;7622559;19;20014;-79
2022/11/23 04:55:39;;;;;;;13.80;4.53;;;4.10;99.90;;;;;;7617964;19;20257;-80
2022/11/23 04:58:11;;;;;;;5.15;3.60;;;4.10;99.90;;;;;;7603164;19;20011;-81
2022/11/23 05:00:43;;;;;;;10.00;3.67;;;4.10;99.90;;;;;;7623533;19;20061;-81
2022/11/23 05:03:17;;;;;;;;;;;4.10;99.90;;;;;;7640513;19;20510;-82
2022/11/23 05:05:49;;;;;;;11.07;4.18;;;4.10;99.90;;;;;;7631474;19;19958;-82
2022/11/23 05:08:21;;;;;;;8.18;4.43;;;4.20;99.90;;;;;;7631277;19;20058;-82
2022/11/23 05:11:00;;;;;;;11.48;6.28;;;4.30;99.90;;;;;;7631398;19;20046;-82
2022/11/23 05:13:32;;;;;;;15.32;7.22;;;4.20;99.90;;;;;;7640648;19;20022;-80
2022/11/23 05:16:06;;;;;;;13.23;8.55;;;4.30;99.90;;;;;;7635730;19;20017;-83
2022/11/23 05:18:38;;;;;;;17.73;8.55;;;4.30;99.90;;;;;;7629588;19;20021;-82
2022/11/23 05:21:11;;;;;;;11.27;6.68;;;4.30;99.90;;;;;;7639446;19;20029;-81
2022/11/23 05:23:44;;;;;;;14.73;7.10;;;4.30;99.90;;;;;;7629800;19;20014;-81
2022/11/23 05:26:17;;;;;;;;;;;4.30;99.90;;;;;;7608827;19;20018;-79
2022/11/23 05:28:49;;;;;;;10.40;3.67;;;4.30;99.90;;;;;;7603711;19;20137;-80
2022/11/23 05:31:22;;;;;;;8.02;3.13;;;4.20;99.90;;;;;;7595352;19;20007;-79
2022/11/23 05:33:55;;;;;;;7.88;2.47;;;4.20;99.90;;;;;;7614203;19;20018;-82
2022/11/23 05:36:38;;;;;;;4.82;2.60;;;4.30;99.90;;;;;;7603503;19;20139;-80
2022/11/23 05:39:13;;;;;;;6.63;2.97;;;4.30;99.90;;;;;;7619056;19;20627;-82
2022/11/23 05:41:45;;;;;;;6.65;3.03;;;4.30;99.90;;;;;;7641589;19;20038;-82
2022/11/23 05:44:31;;;;;;;11.80;3.15;;;4.20;99.90;;;;;;7619654;19;20022;-81
2022/11/23 05:47:03;;;;;;;5.60;2.30;;;4.20;99.90;;;;;;7623832;19;20504;-81
2022/11/23 05:49:37;;;;;;;7.18;3.28;;;4.10;99.90;;;;;;7623009;19;20034;-80
2022/11/23 05:52:10;;;;;;;6.22;2.92;;;4.10;99.90;;;;;;7640007;19;20102;-79
2022/11/23 05:54:43;;;;;;;5.40;2.50;;;4.20;99.90;;;;;;7644520;19;20032;-77
2022/11/23 05:57:17;;;;;;;;;;;4.20;99.90;;;;;;7643992;19;20026;-79
2022/11/23 05:59:49;;;;;;;8.52;2.92;;;4.20;99.90;;;;;;7637363;19;19925;-83
2022/11/23 06:02:26;;;;;;;12.95;3.08;;;4.20;99.90;;;;;;7587020;19;20014;-79
2022/11/23 06:05:04;;;;;;;6.22;2.78;;;4.10;99.90;;;;;;7599368;19;20647;-77
2022/11/23 06:07:45;;;;;;;14.85;4.32;;;4.10;99.90;;;;;;7605212;19;20860;-78
2022/11/23 06:10:17;;;;;;;6.15;3.03;;;4.10;99.90;;;;;;7604667;19;21003;-77
2022/11/23 06:12:52;;;;;;;13.57;2.85;;;4.10;99.90;;;;;;7622060;19;20034;-78
2022/11/23 06:15:26;;;;;;;6.53;3.50;;;4.10;99.90;;;;;;7588439;19;20014;-78
2022/11/23 06:18:00;;;;;;;7.75;3.03;;;4.10;99.90;;;;;;7591873;19;20019;-76
2022/11/23 06:20:40;;;;;;;11.35;3.42;;;4.10;99.90;;;;;;7590265;19;20642;-78
2022/11/23 06:23:12;;;;;;;4.70;3.05;;;4.20;99.90;;;;;;7611937;19;20025;-77
2022/11/23 06:25:44;;;;;;;8.13;3.90;;;4.10;99.90;;;;;;7598380;19;20107;-78
2022/11/23 06:28:29;;;;;;;10.02;3.78;;;4.10;99.90;;;;;;7596363;19;20056;-75
2022/11/23 06:31:05;;;;;;;13.63;3.92;;;4.10;99.90;;;;;;7599609;19;20985;-77
2022/11/23 06:33:39;;;;;;;8.48;4.32;;;4.20;99.90;;;;;;7600422;19;20366;-77
2022/11/23 06:36:14;;;;;;;9.85;4.05;;;4.20;99.90;;;;;;7585277;19;20029;-77
2022/11/23 06:38:51;;;;;;;14.02;4.68;;;4.10;99.90;;;;;;7602943;19;20023;-77
2022/11/23 06:41:27;;;;;;;7.35;4.38;;;4.10;99.90;;;;;;7619037;19;20040;-78
2022/11/23 06:44:05;;;;;;;7.40;4.63;;;4.10;99.90;;;;;;7619485;19;20031;-76
2022/11/23 06:46:43;;;;;;;12.68;5.25;;;4.10;99.90;;;;;;7617805;19;20022;-74
2022/11/23 06:49:18;;;;;;;13.73;6.03;;;4.10;99.90;;;;;;7618105;19;20543;-77
2022/11/23 06:51:55;;;;;;;15.75;5.38;;;4.20;99.90;;;;;;7616507;19;20010;-76
2022/11/23 06:54:27;;;;;;;12.32;5.38;;;4.20;99.90;;;;;;7619515;19;20023;-76
2022/11/23 06:57:01;;;;;;;13.43;5.75;;;4.20;99.90;;;;;;7614696;19;20046;-77
2022/11/23 06:59:33;;;;;;;8.27;5.18;;;4.20;99.90;;;;;;7616686;19;20011;-77
2022/11/23 07:02:08;;;;;;;14.32;4.90;;;4.30;99.90;;;;;;7617470;19;20545;-76
2022/11/23 07:04:41;;;;;;;8.23;4.75;;;4.20;99.90;;;;;;7610618;19;20092;-76
2022/11/23 07:07:19;;;;;;;8.55;4.43;;;4.30;99.90;;;;;;7618090;19;20018;-77
2022/11/23 07:09:59;;;;;;;10.25;4.57;;;4.30;99.90;;;;;;7618969;19;20081;-77
2022/11/23 07:12:46;;;;;;;9.23;4.47;;;4.30;99.90;;;;;;7613120;19;20030;-77
2022/11/23 07:15:21;;;;;;;11.15;4.22;;;4.30;99.90;;;;;;7614135;19;20616;-75
2022/11/23 07:17:55;;;;;;;9.15;4.32;;;4.30;99.90;;;;;;7617231;19;20107;-77
2022/11/23 07:20:28;;;;;;;12.23;3.88;;;4.40;99.90;;;;;;7603704;19;20033;-75
2022/11/23 07:23:02;;;;;;;10.88;4.55;;;4.40;99.90;;;;;;7600508;19;20019;-77
2022/11/23 07:25:36;;;;;;;6.80;3.92;;;4.40;99.90;;;;;;7611088;19;20017;-77
2022/11/23 07:28:10;;;;;;;9.90;3.85;;;4.50;99.90;;;;;;7603443;19;20019;-76
2022/11/23 07:30:43;;;;;;;8.82;3.88;;;4.50;99.90;;;;;;7598171;19;20299;-76
2022/11/23 07:33:15;;;;;;;7.25;3.70;;;4.60;99.90;;;;;;7614313;19;20014;-76
2022/11/23 07:35:47;;;;;;;10.07;3.50;;;4.70;99.90;;;;;;7617344;19;20022;-77
2022/11/23 07:38:19;;;;;;;7.82;3.30;;;4.70;99.90;;;;;;7613312;19;20014;-76
2022/11/23 07:40:52;;;;;;;13.43;4.30;;;4.80;99.90;;;;;;7611184;19;20029;-76
2022/11/23 07:43:47;;;;;;;9.05;3.95;;;4.90;99.90;;;;;;7601376;19;20026;-76
2022/11/23 07:46:20;;;;;;;11.35;4.45;;;4.80;99.90;;;;;;7599771;19;20010;-76
2022/11/23 07:48:53;;;;;;;9.70;3.40;;;4.90;99.90;;;;;;7606030;19;20010;-77
2022/11/23 07:51:25;;;;;;;8.65;3.10;;;4.90;99.90;;;;;;7607201;19;20100;-75
2022/11/23 07:53:57;;;;;;;8.85;3.42;;;5.00;99.90;;;;;;7607870;19;20486;-76
2022/11/23 07:56:29;;;;;;;8.90;3.25;;;4.90;99.90;;;;;;7610855;19;20022;-77
2022/11/23 07:59:01;;;;;;;7.32;3.33;;;4.90;99.90;;;;;;7608197;19;20615;-77
2022/11/23 08:01:33;;;;;;;12.20;3.80;;;4.90;99.90;;;;;;7603563;19;20026;-77
2022/11/23 08:04:05;;;;;;;4.80;2.60;;;5.00;99.90;;;;;;7608378;19;20025;-78
2022/11/23 08:06:37;;;;;;;4.65;2.60;;;5.00;99.90;;;;;;7606930;19;20006;-76
2022/11/23 08:09:09;;;;;;;8.43;3.65;;;5.20;99.90;;;;;;7608512;19;20021;-77
2022/11/23 08:11:41;;;;;;;5.00;2.88;;;5.30;99.90;;;;;;7608047;19;20030;-77
2022/11/23 08:14:13;;;;;;;5.82;2.95;;;5.40;99.90;;;;;;7608184;19;20534;-76
2022/11/23 08:16:49;;;;;;;21.02;4.68;;;5.50;99.90;;;;;;7606478;19;20010;-77
2022/11/23 08:19:22;;;;;;;6.53;2.75;;;5.70;99.90;;;;;;7607389;19;20033;-77
2022/11/23 08:21:53;;;;;;;13.93;3.17;;;5.70;99.90;;;;;;7605358;19;20015;-76
2022/11/23 08:24:26;;;;;;;6.70;3.33;;;5.80;99.90;;;;;;7608631;19;20018;-76
2022/11/23 08:26:58;;;;;;;12.73;3.70;;;5.80;99.90;;;;;;7608116;19;20501;-77
2022/11/23 08:29:30;;;;;;;9.75;3.00;;;5.80;99.90;;;;;;7600797;19;20018;-75
2022/11/23 08:32:02;;;;;;;11.27;3.10;;;5.90;99.90;;;;;;7612113;19;20025;-77
2022/11/23 08:34:34;;;;;;;10.02;3.05;;;5.90;99.90;;;;;;7607518;19;20479;-76
2022/11/23 08:37:06;;;;;;;11.68;3.63;;;5.90;99.90;;;;;;7604007;19;21028;-76
2022/11/23 08:39:41;;;;;;;11.57;2.40;;;5.90;99.90;;;;;;7592034;19;20018;-77
2022/11/23 08:42:13;;;;;;;6.13;2.97;;;6.00;99.90;;;;;;7593662;19;20034;-78
2022/11/23 08:44:45;;;;;;;7.40;3.05;;;6.10;99.90;;;;;;7589111;19;20046;-75
2022/11/23 08:47:18;;;;;;;4.72;2.40;;;6.20;99.90;;;;;;7595243;19;20021;-76
2022/11/23 08:49:50;;;;;;;10.60;2.60;;;6.20;99.90;;;;;;7597368;19;20017;-76
2022/11/23 08:52:22;;;;;;;4.35;2.50;;;6.30;99.90;;;;;;7592633;19;21167;-78
2022/11/23 08:54:55;;;;;;;10.10;2.72;;;6.40;99.90;;;;;;7591097;19;20477;-76
2022/11/23 08:57:27;;;;;;;8.45;2.70;;;6.40;99.90;;;;;;7591055;19;20018;-76
2022/11/23 08:59:59;;;;;;;10.55;2.20;;;6.50;99.90;;;;;;7594059;19;20018;-78
2022/11/23 09:02:31;;;;;;;3.67;1.95;;;6.60;99.90;;;;;;7588050;19;20011;-77
2022/11/23 09:05:05;;;;;;;6.55;2.58;;;6.70;99.90;;;;;;7580231;19;20015;-77
2022/11/23 09:07:38;;;;;;;3.75;1.90;;;6.70;99.90;;;;;;7571969;19;20015;-76
2022/11/23 09:10:10;;;;;;;4.80;1.90;;;6.70;99.90;;;;;;7582779;19;20015;-77
2022/11/23 09:12:48;;;;;;;7.70;2.45;;;6.80;99.90;;;;;;7613462;19;20507;-77
2022/11/23 09:15:21;;;;;;;6.43;2.17;;;6.80;99.90;;;;;;7606040;19;20011;-77
2022/11/23 09:17:53;;;;;;;6.32;2.00;;;6.80;99.90;;;;;;7604977;19;20019;-77
2022/11/23 09:20:25;;;;;;;6.75;2.17;;;6.90;99.90;;;;;;7605771;19;20019;-77
2022/11/23 09:22:57;;;;;;;4.57;2.20;;;6.90;99.90;;;;;;7601541;19;20015;-76
2022/11/23 09:25:29;;;;;;;7.45;2.13;;;7.00;99.90;;;;;;7603822;19;20025;-78
2022/11/23 09:28:03;;;;;;;5.03;2.63;;;7.00;99.90;;;;;;7586569;19;20041;-77
2022/11/23 09:30:35;;;;;;;;;;;7.10;99.90;;;;;;7589057;19;20564;-78
2022/11/23 09:33:07;;;;;;;4.60;2.00;;;7.20;99.90;;;;;;7597070;19;19960;-77
2022/11/23 09:35:40;;;;;;;8.00;2.15;;;7.20;99.90;;;;;;7599309;19;20804;-77
2022/11/23 09:38:15;;;;;;;6.03;2.22;;;7.20;99.90;;;;;;7593305;19;20026;-76
2022/11/23 09:40:56;;;;;;;5.97;1.83;;;7.20;99.90;;;;;;7616540;19;20026;-77
2022/11/23 09:43:54;;;;;;;10.68;2.40;;;7.30;99.90;;;;;;7612664;19;20023;-77
2022/11/23 09:46:47;;;;;;;5.43;1.98;;;7.20;99.90;;;;;;7620955;19;20540;-77
2022/11/23 09:49:48;;;;;;;5.78;2.50;;;7.30;99.90;;;;;;7608569;19;20098;-76
2022/11/23 09:52:22;;;;;;;4.93;1.83;;;7.30;99.90;;;;;;7592095;19;20813;-77
2022/11/23 09:54:59;;;;;;;5.43;2.33;;;7.20;99.90;;;;;;7614594;19;20030;-77
2022/11/23 09:57:34;;;;;;;5.18;1.75;;;7.10;99.90;;;;;;7603937;19;20029;-75
2022/11/23 10:00:19;;;;;;;6.32;2.05;;;7.10;99.90;;;;;;7594773;19;20014;-79
2022/11/23 10:02:52;;;;;;;12.07;2.35;;;7.10;99.90;;;;;;7609302;19;20015;-75
2022/11/23 10:05:26;;;;;;;6.77;2.30;;;7.20;99.90;;;;;;7608192;19;20474;-74
2022/11/23 10:08:25;;;;;;;10.23;2.65;;;7.30;99.90;;;;;;7613750;19;20038;-76
2022/11/23 10:11:29;;;;;;;5.97;1.60;;;7.40;99.90;;;;;;7605416;19;20019;-77
2022/11/23 10:14:11;;;;;;;;;;;7.50;99.90;;;;;;7601352;19;20011;-76
2022/11/23 10:17:01;;;;;;;4.40;1.63;;;7.50;99.90;;;;;;7593302;19;19915;-77
2022/11/23 10:19:51;;;;;;;5.78;1.60;;;7.50;99.90;;;;;;7604409;19;20529;-75
2022/11/23 10:22:59;;;;;;;3.17;1.60;;;7.50;99.90;;;;;;7623809;19;20018;-77
2022/11/23 10:25:44;;;;;;;8.77;2.00;;;7.60;99.90;;;;;;7620099;19;20029;-76
2022/11/23 10:28:19;;;;;;;6.60;1.60;;;7.60;99.90;;;;;;7620790;19;20026;-77
2022/11/23 10:31:14;;;;;;;5.32;1.30;;;7.70;99.90;;;;;;7618210;19;20018;-77
2022/11/23 10:34:10;;;;;;;7.43;1.80;;;7.80;99.90;;;;;;7623747;19;20097;-77
2022/11/23 10:36:42;;;;;;;6.53;1.75;;;7.90;99.90;;;;;;7621997;19;20026;-76
2022/11/23 10:39:27;;;;;;;6.70;2.03;;;8.00;99.90;;;;;;7622992;19;20018;-77
2022/11/23 10:42:02;;;;;;;7.45;2.03;;;8.00;99.90;;;;;;7621064;19;20022;-77
2022/11/23 10:44:36;;;;;;;6.20;1.30;;;8.10;99.90;;;;;;7617250;19;20015;-75
2022/11/23 10:47:09;;;;;;;4.00;1.60;;;8.20;99.90;;;;;;7621102;19;20023;-77
2022/11/23 10:49:57;;;;;;;4.43;1.85;;;8.40;99.90;;;;;;7607586;19;20018;-77
2022/11/23 10:52:32;;;;;;;5.18;1.67;;;8.60;99.90;;;;;;7603132;19;20029;-76
2022/11/23 10:55:08;;;;;;;6.20;1.42;;;8.70;99.90;;;;;;7593293;19;20017;-76
2022/11/23 10:57:44;;;;;;;10.07;1.52;;;8.80;99.90;;;;;;7617127;19;20138;-77
2022/11/23 11:00:18;;;;;;;4.90;1.20;;;8.80;99.90;;;;;;7608738;19;20026;-77
2022/11/23 11:02:55;;;;;;;6.97;1.23;;;8.90;99.90;;;;;;7614012;19;20368;-78
2022/11/23 11:05:36;;;;;;;5.97;1.40;;;9.00;99.70;;;;;;7618436;19;20018;-77
2022/11/23 11:08:34;;;;;;;3.50;1.40;;;9.00;99.90;;;;;;7619393;19;20011;-76
2022/11/23 11:11:20;;;;;;;5.05;1.42;;;9.10;99.90;;;;;;7599363;19;20029;-78
2022/11/23 11:14:03;;;;;;;4.70;1.23;;;9.40;97.20;;;;;;7587885;19;20029;-79
2022/11/23 11:16:37;;;;;;;6.22;1.45;;;9.20;97.60;;;;;;7596085;19;20079;-79
2022/11/23 11:19:20;;;;;;;;;;;9.20;99.90;;;;;;7585444;19;20098;-76
2022/11/23 11:21:52;;;;;;;5.53;1.83;;;9.30;97.20;;;;;;7594732;19;19934;-78
2022/11/23 11:24:34;;;;;;;5.30;1.30;;;10.30;94.10;;;;;;7600712;19;20058;-75
2022/11/23 11:27:14;;;;;;;4.13;1.48;;;10.10;93.30;;;;;;7591685;19;21590;-77
2022/11/23 11:29:49;;;;;;;4.50;1.67;;;10.90;92.60;;;;;;7589808;19;20018;-77
2022/11/23 11:32:27;;;;;;;7.68;1.80;;;11.00;91.20;;;;;;7576779;19;20760;-75
2022/11/23 11:35:09;;;;;;;5.00;1.30;;;11.50;90.20;;;;;;7575127;19;20450;-78
2022/11/23 11:37:50;;;;;;;7.53;1.80;;;11.10;86.10;;;;;;7582764;19;20021;-77
2022/11/23 11:40:33;;;;;;;5.68;2.95;;;11.20;92.00;;;;;;7590711;19;21029;-77
2022/11/23 11:43:30;;;;;;;4.63;1.15;;;14.50;82.20;;;;;;7590509;19;20025;-76
2022/11/23 11:46:21;;;;;;;5.70;2.20;;;15.20;73.80;;;;;;7592029;19;20388;-76
2022/11/23 11:49:16;;;;;;;7.93;2.20;;;14.00;76.00;;;;;;7581287;19;20056;-75
2022/11/23 11:51:55;;;;;;;5.20;1.00;;;14.40;72.30;;;;;;7602659;19;20367;-77
2022/11/23 11:54:37;;;;;;;6.50;1.52;;;12.70;75.40;;;;;;7617377;19;20486;-77
2022/11/23 11:57:30;;;;;;;4.43;1.20;;;11.60;79.50;;;;;;7612205;19;20025;-78
2022/11/23 12:00:10;;;;;;;9.10;1.55;;;10.70;81.70;;;;;;7617890;19;20046;-76
2022/11/23 12:02:56;;;;;;;3.90;0.90;;;10.30;88.00;;;;;;7610729;19;20140;-76
2022/11/23 12:06:01;;;;;;;8.48;1.38;;;10.30;84.80;;;;;;7607740;19;20382;-76
2022/11/23 12:09:02;;;;;;;6.25;1.80;;;10.30;88.30;;;;;;7616304;19;20053;-76
2022/11/23 12:11:35;;;;;;;6.35;1.30;;;10.60;87.40;;;;;;7619963;19;20019;-77
2022/11/23 12:14:13;;;;;;;4.97;1.65;;;10.60;86.50;;;;;;7602770;19;20018;-77
2022/11/23 12:17:01;;;;;;;8.20;1.55;;;10.90;83.70;;;;;;7611460;19;20014;-77
2022/11/23 12:20:16;;;;;;;6.78;1.30;;;10.40;85.60;;;;;;7564190;19;20031;-76
2022/11/23 12:22:57;;;;;;;7.88;1.48;;;10.00;85.00;;;;;;7576382;19;20018;-77
2022/11/23 12:25:47;;;;;;;4.03;1.10;;;9.60;90.20;;;;;;7583993;19;20025;-77
2022/11/23 12:28:44;;;;;;;8.75;1.60;;;9.40;90.90;;;;;;7580964;19;20282;-77
2022/11/23 12:31:42;;;;;;;6.05;1.25;;;9.30;91.30;;;;;;7580226;19;20029;-76
2022/11/23 12:34:27;;;;;;;2.85;1.23;;;9.60;90.60;;;;;;7574411;19;20064;-77
2022/11/23 12:37:21;;;;;;;4.63;1.30;;;9.90;89.10;;;;;;7519105;19;20074;-77
2022/11/23 12:40:06;;;;;;;5.65;1.40;;;9.90;90.00;;;;;;7549617;19;20010;-77
2022/11/23 12:42:53;;;;;;;3.90;1.30;;;9.80;90.90;;;;;;7562957;19;20018;-79
2022/11/23 12:45:49;;;;;;;4.35;1.85;;;9.90;90.50;;;;;;7556866;19;20633;-77
2022/11/23 12:48:36;;;;;;;3.38;1.40;;;10.80;87.50;;;;;;7547271;19;21066;-76
2022/11/23 12:51:45;;;;;;;3.33;1.35;;;11.30;86.40;;;;;;7552344;19;20006;-77
2022/11/23 12:54:38;;;;;;;4.47;1.20;;;11.30;81.20;;;;;;7525760;19;20095;-77
2022/11/23 12:57:27;;;;;;;5.95;1.00;;;10.60;84.10;;;;;;7546277;19;20022;-78
2022/11/23 13:00:06;;;;;;;2.33;1.25;;;10.40;83.50;;;;;;7550093;19;20014;-79
2022/11/23 13:03:19;;;;;;;4.55;1.30;;;10.40;84.50;;;;;;7562044;19;20009;-77
2022/11/23 13:06:33;;;;;;;4.22;1.23;;;10.60;84.90;;;;;;7567812;19;20007;-77
2022/11/23 13:09:38;;;;;;;8.45;1.48;;;10.70;85.80;;;;;;7557138;19;20018;-76
2022/11/23 13:12:27;;;;;;;2.08;0.90;;;10.40;85.60;;;;;;7544569;19;20026;-77
2022/11/23 13:15:30;;;;;;;4.05;1.15;;;10.20;83.50;;;;;;7558567;19;20011;-77
2022/11/23 13:18:11;;;;;;;6.40;1.10;;;10.00;84.00;;;;;;7549694;19;20011;-76
2022/11/23 13:21:02;;;;;;;5.75;0.90;;;9.70;81.40;;;;;;7549212;19;20024;-77
2022/11/23 13:23:38;;;;;;;3.22;1.08;;;9.60;79.30;;;;;;7564490;19;20021;-75
2022/11/23 13:26:27;;;;;;;6.20;1.67;;;9.60;83.20;;;;;;7550679;19;20082;-77
2022/11/23 13:29:01;;;;;;;3.45;1.35;;;10.30;81.80;;;;;;7548938;19;20048;-77
2022/11/23 13:31:34;;;;;;;4.13;1.02;;;10.40;82.50;;;;;;7562726;19;20374;-76
2022/11/23 13:34:26;;;;;;;;;;;10.60;81.00;;;;;;7544233;19;20010;-76
2022/11/23 13:37:00;;;;;;;4.15;1.30;;;10.30;79.70;;;;;;7586234;19;19954;-79
2022/11/23 13:40:02;;;;;;;7.70;1.58;;;9.90;85.80;;;;;;7595477;19;20110;-78
2022/11/23 13:42:35;;;;;;;5.07;1.60;;;9.70;89.40;;;;;;7562004;19;21241;-78
2022/11/23 13:45:21;;;;;;;4.25;1.90;;;9.80;90.70;;;;;;7584734;19;20018;-78
2022/11/23 13:48:07;;;;;;;8.02;1.70;;;9.90;90.10;;;;;;7597195;19;20041;-76
2022/11/23 13:50:56;;;;;;;4.10;1.45;;;9.60;89.90;;;;;;7605531;19;20018;-78